createdAt,value
2023-02-19T00:00:09.808Z,1009.09
2023-02-19T00:01:10.122Z,1009.05
2023-02-19T00:02:09.807Z,1009.12
2023-02-19T00:03:10.061Z,1009.12
2023-02-19T00:04:09.800Z,1009.15
2023-02-19T00:05:09.816Z,1009.16
2023-02-19T00:06:09.734Z,1009.15
2023-02-19T00:07:09.727Z,1009.17
2023-02-19T00:08:09.739Z,1009.16
2023-02-19T00:09:09.702Z,1009.18
2023-02-19T00:10:09.709Z,1009.14
2023-02-19T00:11:10.044Z,1009.14
2023-02-19T00:12:09.700Z,1009.15
2023-02-19T00:13:09.670Z,1009.16
2023-02-19T00:14:09.644Z,1009.16
2023-02-19T00:15:09.638Z,1009.19
2023-02-19T00:16:09.696Z,1009.19
2023-02-19T00:17:09.665Z,1009.23
2023-02-19T00:18:09.627Z,1009.16
2023-02-19T00:19:09.593Z,1009.16
2023-02-19T00:20:09.581Z,1009.17
2023-02-19T00:21:09.828Z,1009.16
2023-02-19T00:22:09.671Z,1009.13
2023-02-19T00:23:09.548Z,1009.12
2023-02-19T00:24:09.547Z,1009.11
2023-02-19T00:25:09.529Z,1009.11
2023-02-19T00:26:18.202Z,1009.10
2023-02-19T00:27:10.517Z,1009.05
2023-02-19T00:28:09.492Z,1009.02
2023-02-19T00:29:09.482Z,1009.05
2023-02-19T00:30:17.400Z,1009.04
2023-02-19T00:31:09.952Z,1009.01
2023-02-19T00:32:09.480Z,1009.02
2023-02-19T00:33:09.496Z,1009.05
2023-02-19T00:34:09.447Z,1009.03
2023-02-19T00:35:09.428Z,1008.98
2023-02-19T00:36:09.417Z,1008.97
2023-02-19T00:37:10.382Z,1008.99
2023-02-19T00:38:09.386Z,1008.93
2023-02-19T00:39:09.395Z,1008.90
2023-02-19T00:40:09.361Z,1008.88
2023-02-19T00:41:09.666Z,1008.88
2023-02-19T00:42:09.342Z,1008.89
2023-02-19T00:43:09.406Z,1008.86
2023-02-19T00:44:09.337Z,1008.88
2023-02-19T00:45:09.312Z,1008.88
2023-02-19T00:46:09.339Z,1008.87
2023-02-19T00:47:09.317Z,1008.88
2023-02-19T00:48:09.275Z,1008.89
2023-02-19T00:49:09.379Z,1008.87
2023-02-19T00:50:09.255Z,1008.89
2023-02-19T00:51:09.592Z,1008.89
2023-02-19T00:52:09.237Z,1008.92
2023-02-19T00:53:09.239Z,1008.96
2023-02-19T00:54:09.303Z,1008.96
2023-02-19T00:55:09.209Z,1008.93
2023-02-19T00:56:09.186Z,1008.96
2023-02-19T00:57:09.182Z,1008.97
2023-02-19T00:58:09.182Z,1008.92
2023-02-19T00:59:09.160Z,1008.91
2023-02-19T01:00:09.198Z,1008.91
2023-02-19T01:01:09.540Z,1008.92
2023-02-19T01:02:09.123Z,1008.84
2023-02-19T01:03:09.127Z,1008.83
2023-02-19T01:04:09.106Z,1008.81
2023-02-19T01:05:09.108Z,1008.80
2023-02-19T01:06:09.078Z,1008.77
2023-02-19T01:07:10.131Z,1008.77
2023-02-19T01:08:09.065Z,1008.75
2023-02-19T01:09:09.048Z,1008.76
2023-02-19T01:10:09.029Z,1008.78
2023-02-19T01:11:09.490Z,1008.75
2023-02-19T01:12:09.007Z,1008.75
2023-02-19T01:13:09.013Z,1008.73
2023-02-19T01:14:08.992Z,1008.75
2023-02-19T01:15:08.979Z,1008.72
2023-02-19T01:16:09.047Z,1008.71
2023-02-19T01:17:08.957Z,1008.72
2023-02-19T01:18:08.941Z,1008.67
2023-02-19T01:19:08.947Z,1008.66
2023-02-19T01:20:08.931Z,1008.64
2023-02-19T01:21:09.332Z,1008.63
2023-02-19T01:22:08.904Z,1008.63
2023-02-19T01:23:08.888Z,1008.65
2023-02-19T01:24:08.875Z,1008.65
2023-02-19T01:25:08.864Z,1008.61
2023-02-19T01:26:08.871Z,1008.63
2023-02-19T01:27:08.845Z,1008.53
2023-02-19T01:28:08.829Z,1008.46
2023-02-19T01:29:08.817Z,1008.42
2023-02-19T01:30:08.900Z,1008.36
2023-02-19T01:31:09.170Z,1008.34
2023-02-19T01:32:08.924Z,1008.32
2023-02-19T01:33:08.804Z,1008.38
2023-02-19T01:34:09.031Z,1008.34
2023-02-19T01:35:08.760Z,1008.28
2023-02-19T01:36:08.824Z,1008.20
2023-02-19T01:37:08.754Z,1008.17
2023-02-19T01:38:08.726Z,1008.13
2023-02-19T01:39:08.713Z,1008.14
2023-02-19T01:40:08.702Z,1008.10
2023-02-19T01:41:09.114Z,1008.12
2023-02-19T01:42:08.680Z,1008.15
2023-02-19T01:43:08.670Z,1008.21
2023-02-19T01:44:08.658Z,1008.25
2023-02-19T01:45:08.661Z,1008.25
2023-02-19T01:46:08.641Z,1008.26
2023-02-19T01:47:08.644Z,1008.28
2023-02-19T01:48:08.623Z,1008.28
2023-02-19T01:49:08.616Z,1008.26
2023-02-19T01:50:08.609Z,1008.24
2023-02-19T01:51:09.035Z,1008.24
2023-02-19T01:52:08.571Z,1008.23
2023-02-19T01:53:08.765Z,1008.23
2023-02-19T01:54:08.554Z,1008.17
2023-02-19T01:55:08.544Z,1008.16
2023-02-19T01:56:08.549Z,1008.14
2023-02-19T01:57:08.528Z,1008.13
2023-02-19T01:58:08.516Z,1008.10
2023-02-19T01:59:08.510Z,1008.14
2023-02-19T02:00:08.493Z,1008.09
2023-02-19T02:01:08.849Z,1008.12
2023-02-19T02:02:08.518Z,1008.11
2023-02-19T02:03:08.453Z,1008.06
2023-02-19T02:04:08.440Z,1008.02
2023-02-19T02:05:08.434Z,1008.08
2023-02-19T02:06:08.425Z,1008.06
2023-02-19T02:07:08.422Z,1008.06
2023-02-19T02:08:08.395Z,1008.01
2023-02-19T02:09:08.401Z,1007.97
2023-02-19T02:10:08.428Z,1007.92
2023-02-19T02:11:08.990Z,1007.91
2023-02-19T02:12:08.349Z,1007.92
2023-02-19T02:13:08.340Z,1007.92
2023-02-19T02:14:08.332Z,1007.92
2023-02-19T02:15:08.367Z,1007.93
2023-02-19T02:16:08.386Z,1007.87
2023-02-19T02:17:08.314Z,1007.90
2023-02-19T02:18:08.286Z,1007.90
2023-02-19T02:19:08.277Z,1007.91
2023-02-19T02:20:08.271Z,1007.89
2023-02-19T02:21:08.507Z,1007.94
2023-02-19T02:22:08.257Z,1008.01
2023-02-19T02:23:08.228Z,1007.97
2023-02-19T02:24:08.227Z,1007.96
2023-02-19T02:25:08.228Z,1007.94
2023-02-19T02:26:08.216Z,1007.94
2023-02-19T02:27:08.515Z,1007.89
2023-02-19T02:28:08.178Z,1007.92
2023-02-19T02:29:08.167Z,1007.96
2023-02-19T02:30:08.173Z,1007.96
2023-02-19T02:31:08.485Z,1008.07
2023-02-19T02:32:08.165Z,1007.99
2023-02-19T02:33:08.126Z,1008.05
2023-02-19T02:34:08.123Z,1008.03
2023-02-19T02:35:08.125Z,1008.04
2023-02-19T02:36:08.086Z,1007.97
2023-02-19T02:37:08.109Z,1007.99
2023-02-19T02:38:08.071Z,1007.99
2023-02-19T02:39:08.056Z,1007.99
2023-02-19T02:40:08.062Z,1007.95
2023-02-19T02:41:08.072Z,1007.96
2023-02-19T02:42:08.059Z,1007.93
2023-02-19T02:43:08.013Z,1007.91
2023-02-19T02:44:08.015Z,1007.88
2023-02-19T02:45:07.995Z,1007.88
2023-02-19T02:46:08.053Z,1007.89
2023-02-19T02:47:07.969Z,1007.83
2023-02-19T02:48:07.955Z,1007.83
2023-02-19T02:49:07.944Z,1007.82
2023-02-19T02:50:07.939Z,1007.87
2023-02-19T02:51:08.414Z,1007.88
2023-02-19T02:52:07.906Z,1007.87
2023-02-19T02:53:07.896Z,1007.88
2023-02-19T02:54:07.887Z,1007.86
2023-02-19T02:55:07.895Z,1007.85
2023-02-19T02:56:07.913Z,1007.85
2023-02-19T02:57:07.882Z,1007.92
2023-02-19T02:58:07.841Z,1007.94
2023-02-19T02:59:07.831Z,1007.93
2023-02-19T03:00:07.818Z,1007.97
2023-02-19T03:01:08.089Z,1007.97
2023-02-19T03:02:07.899Z,1007.97
2023-02-19T03:03:07.791Z,1008.03
2023-02-19T03:04:07.778Z,1008.01
2023-02-19T03:05:07.774Z,1008.01
2023-02-19T03:06:07.758Z,1008.00
2023-02-19T03:07:07.769Z,1007.97
2023-02-19T03:08:07.746Z,1007.98
2023-02-19T03:09:07.723Z,1007.99
2023-02-19T03:10:07.721Z,1008.02
2023-02-19T03:11:08.013Z,1008.00
2023-02-19T03:12:07.693Z,1007.99
2023-02-19T03:13:07.699Z,1008.02
2023-02-19T03:14:07.678Z,1008.04
2023-02-19T03:15:07.654Z,1008.07
2023-02-19T03:16:07.688Z,1008.05
2023-02-19T03:17:07.632Z,1008.08
2023-02-19T03:18:07.640Z,1008.05
2023-02-19T03:19:07.617Z,1008.09
2023-02-19T03:20:07.604Z,1008.12
2023-02-19T03:21:07.735Z,1008.13
2023-02-19T03:22:07.582Z,1008.10
2023-02-19T03:23:07.599Z,1008.15
2023-02-19T03:24:07.558Z,1008.20
2023-02-19T03:25:07.549Z,1008.21
2023-02-19T03:26:07.533Z,1008.21
2023-02-19T03:27:07.522Z,1008.20
2023-02-19T03:28:07.534Z,1008.16
2023-02-19T03:29:07.497Z,1008.23
2023-02-19T03:30:07.552Z,1008.28
2023-02-19T03:31:07.831Z,1008.31
2023-02-19T03:32:07.497Z,1008.30
2023-02-19T03:33:07.451Z,1008.38
2023-02-19T03:34:07.459Z,1008.33
2023-02-19T03:35:07.428Z,1008.31
2023-02-19T03:36:07.426Z,1008.33
2023-02-19T03:37:07.415Z,1008.29
2023-02-19T03:38:07.395Z,1008.32
2023-02-19T03:39:07.403Z,1008.31
2023-02-19T03:40:07.450Z,1008.30
2023-02-19T03:41:07.362Z,1008.28
2023-02-19T03:42:07.354Z,1008.33
2023-02-19T03:43:07.341Z,1008.30
2023-02-19T03:44:07.349Z,1008.35
2023-02-19T03:45:07.321Z,1008.37
2023-02-19T03:46:07.431Z,1008.35
2023-02-19T03:47:07.297Z,1008.38
2023-02-19T03:48:07.286Z,1008.33
2023-02-19T03:49:07.286Z,1008.32
2023-02-19T03:50:07.267Z,1008.39
2023-02-19T03:51:07.267Z,1008.45
2023-02-19T03:52:07.262Z,1008.45
2023-02-19T03:53:07.267Z,1008.44
2023-02-19T03:54:07.214Z,1008.44
2023-02-19T03:55:07.206Z,1008.41
2023-02-19T03:56:07.208Z,1008.42
2023-02-19T03:57:07.189Z,1008.44
2023-02-19T03:58:07.177Z,1008.36
2023-02-19T03:59:07.178Z,1008.39
2023-02-19T04:00:07.155Z,1008.38
2023-02-19T04:01:07.143Z,1008.40
2023-02-19T04:02:07.170Z,1008.39
2023-02-19T04:03:07.923Z,1008.37
2023-02-19T04:04:07.126Z,1008.39
2023-02-19T04:05:07.108Z,1008.38
2023-02-19T04:06:07.091Z,1008.46
2023-02-19T04:07:07.080Z,1008.39
2023-02-19T04:08:07.066Z,1008.44
2023-02-19T04:09:07.069Z,1008.43
2023-02-19T04:10:07.047Z,1008.43
2023-02-19T04:11:07.067Z,1008.51
2023-02-19T04:12:07.149Z,1008.48
2023-02-19T04:13:07.018Z,1008.61
2023-02-19T04:14:07.012Z,1008.53
2023-02-19T04:15:06.989Z,1008.56
2023-02-19T04:16:06.980Z,1008.57
2023-02-19T04:17:06.997Z,1008.56
2023-02-19T04:18:06.966Z,1008.54
2023-02-19T04:19:06.950Z,1008.58
2023-02-19T04:20:06.997Z,1008.59
2023-02-19T04:21:06.930Z,1008.54
2023-02-19T04:22:06.920Z,1008.57
2023-02-19T04:23:06.903Z,1008.60
2023-02-19T04:24:06.948Z,1008.59
2023-02-19T04:25:06.907Z,1008.62
2023-02-19T04:26:06.882Z,1008.58
2023-02-19T04:27:06.864Z,1008.62
2023-02-19T04:28:06.845Z,1008.59
2023-02-19T04:29:06.866Z,1008.63
2023-02-19T04:30:06.867Z,1008.66
2023-02-19T04:31:06.876Z,1008.69
2023-02-19T04:32:06.821Z,1008.69
2023-02-19T04:33:06.801Z,1008.68
2023-02-19T04:34:06.801Z,1008.70
2023-02-19T04:35:06.762Z,1008.75
2023-02-19T04:36:06.756Z,1008.73
2023-02-19T04:37:06.754Z,1008.75
2023-02-19T04:38:06.769Z,1008.77
2023-02-19T04:39:06.760Z,1008.84
2023-02-19T04:40:06.714Z,1008.74
2023-02-19T04:41:06.695Z,1008.80
2023-02-19T04:42:06.692Z,1008.77
2023-02-19T04:43:06.676Z,1008.74
2023-02-19T04:44:06.666Z,1008.77
2023-02-19T04:45:06.665Z,1008.76
2023-02-19T04:46:06.660Z,1008.76
2023-02-19T04:47:06.649Z,1008.78
2023-02-19T04:48:06.627Z,1008.76
2023-02-19T04:49:06.632Z,1008.80
2023-02-19T04:50:06.597Z,1008.79
2023-02-19T04:51:06.600Z,1008.82
2023-02-19T04:52:06.573Z,1008.82
2023-02-19T04:53:06.605Z,1008.82
2023-02-19T04:54:06.636Z,1008.82
2023-02-19T04:55:06.542Z,1008.83
2023-02-19T04:56:06.531Z,1008.81
2023-02-19T04:57:06.533Z,1008.85
2023-02-19T04:58:06.510Z,1008.87
2023-02-19T04:59:06.526Z,1008.86
2023-02-19T05:00:06.488Z,1008.88
2023-02-19T05:01:06.546Z,1008.97
2023-02-19T05:02:06.461Z,1008.91
2023-02-19T05:03:06.473Z,1008.97
2023-02-19T05:04:06.469Z,1008.94
2023-02-19T05:05:06.493Z,1008.95
2023-02-19T05:06:06.416Z,1008.93
2023-02-19T05:07:06.421Z,1008.97
2023-02-19T05:08:06.418Z,1008.93
2023-02-19T05:09:06.403Z,1008.96
2023-02-19T05:10:06.378Z,1009.00
2023-02-19T05:11:06.382Z,1009.01
2023-02-19T05:12:06.356Z,1009.04
2023-02-19T05:13:06.370Z,1009.03
2023-02-19T05:14:06.334Z,1009.04
2023-02-19T05:15:06.391Z,1009.03
2023-02-19T05:16:06.339Z,1009.03
2023-02-19T05:17:06.294Z,1009.00
2023-02-19T05:18:06.307Z,1008.98
2023-02-19T05:19:06.340Z,1008.99
2023-02-19T05:20:06.272Z,1009.01
2023-02-19T05:21:06.262Z,1009.01
2023-02-19T05:22:06.247Z,1008.97
2023-02-19T05:23:06.245Z,1008.99
2023-02-19T05:24:06.225Z,1008.96
2023-02-19T05:25:06.211Z,1008.94
2023-02-19T05:26:06.234Z,1008.95
2023-02-19T05:27:06.191Z,1008.92
2023-02-19T05:28:06.284Z,1008.89
2023-02-19T05:29:06.166Z,1008.90
2023-02-19T05:30:06.211Z,1008.91
2023-02-19T05:31:06.175Z,1008.90
2023-02-19T05:32:06.204Z,1008.96
2023-02-19T05:33:06.119Z,1008.97
2023-02-19T05:34:06.127Z,1008.98
2023-02-19T05:35:06.100Z,1008.96
2023-02-19T05:36:06.095Z,1008.93
2023-02-19T05:37:06.936Z,1008.92
2023-02-19T05:38:06.088Z,1008.96
2023-02-19T05:39:06.078Z,1008.96
2023-02-19T05:40:06.051Z,1008.97
2023-02-19T05:41:06.034Z,1009.01
2023-02-19T05:42:06.020Z,1009.01
2023-02-19T05:43:06.063Z,1008.98
2023-02-19T05:44:06.017Z,1009.02
2023-02-19T05:45:05.990Z,1008.98
2023-02-19T05:46:06.014Z,1008.98
2023-02-19T05:47:05.986Z,1008.98
2023-02-19T05:48:05.960Z,1009.03
2023-02-19T05:49:05.945Z,1009.03
2023-02-19T05:50:05.936Z,1009.07
2023-02-19T05:51:05.952Z,1009.01
2023-02-19T05:52:05.948Z,1008.97
2023-02-19T05:53:05.909Z,1009.00
2023-02-19T05:54:05.902Z,1009.04
2023-02-19T05:55:05.879Z,1009.05
2023-02-19T05:56:05.889Z,1009.06
2023-02-19T05:57:05.858Z,1009.07
2023-02-19T05:58:05.850Z,1009.10
2023-02-19T05:59:05.833Z,1009.12
2023-02-19T06:00:05.851Z,1009.13
2023-02-19T06:01:05.818Z,1009.15
2023-02-19T06:02:05.829Z,1009.16
2023-02-19T06:03:05.799Z,1009.17
2023-02-19T06:04:05.854Z,1009.15
2023-02-19T06:05:05.783Z,1009.19
2023-02-19T06:06:05.756Z,1009.16
2023-02-19T06:07:05.747Z,1009.16
2023-02-19T06:08:05.737Z,1009.16
2023-02-19T06:09:05.743Z,1009.12
2023-02-19T06:10:05.734Z,1009.05
2023-02-19T06:11:05.710Z,1009.09
2023-02-19T06:12:05.726Z,1009.08
2023-02-19T06:13:05.715Z,1009.07
2023-02-19T06:14:05.686Z,1009.01
2023-02-19T06:15:05.681Z,1009.05
2023-02-19T06:16:05.682Z,1009.01
2023-02-19T06:17:05.636Z,1009.06
2023-02-19T06:18:05.626Z,1009.07
2023-02-19T06:19:05.970Z,1009.08
2023-02-19T06:20:05.612Z,1009.07
2023-02-19T06:21:05.618Z,1009.10
2023-02-19T06:22:05.584Z,1009.10
2023-02-19T06:23:05.570Z,1009.06
2023-02-19T06:24:05.581Z,1009.00
2023-02-19T06:25:05.549Z,1009.05
2023-02-19T06:26:05.543Z,1009.10
2023-02-19T06:27:05.530Z,1009.15
2023-02-19T06:28:05.517Z,1009.14
2023-02-19T06:29:05.521Z,1009.09
2023-02-19T06:30:14.536Z,1009.10
2023-02-19T06:31:05.500Z,1009.11
2023-02-19T06:32:05.565Z,1009.12
2023-02-19T06:33:05.463Z,1009.11
2023-02-19T06:34:05.623Z,1009.13
2023-02-19T06:35:05.447Z,1009.17
2023-02-19T06:36:05.439Z,1009.28
2023-02-19T06:37:05.439Z,1009.32
2023-02-19T06:38:05.415Z,1009.36
2023-02-19T06:39:05.413Z,1009.34
2023-02-19T06:40:05.388Z,1009.34
2023-02-19T06:41:05.378Z,1009.33
2023-02-19T06:42:05.379Z,1009.37
2023-02-19T06:43:05.363Z,1009.41
2023-02-19T06:44:05.392Z,1009.47
2023-02-19T06:45:05.358Z,1009.50
2023-02-19T06:46:05.334Z,1009.57
2023-02-19T06:47:05.312Z,1009.56
2023-02-19T06:48:05.308Z,1009.58
2023-02-19T06:49:05.291Z,1009.62
2023-02-19T06:50:05.311Z,1009.64
2023-02-19T06:51:05.391Z,1009.64
2023-02-19T06:52:05.257Z,1009.64
2023-02-19T06:53:05.244Z,1009.68
2023-02-19T06:54:05.238Z,1009.71
2023-02-19T06:55:05.222Z,1009.75
2023-02-19T06:56:05.245Z,1009.77
2023-02-19T06:57:05.205Z,1009.79
2023-02-19T06:58:05.233Z,1009.76
2023-02-19T06:59:05.201Z,1009.78
2023-02-19T07:00:05.188Z,1009.84
2023-02-19T07:01:05.204Z,1009.84
2023-02-19T07:02:05.150Z,1009.76
2023-02-19T07:03:05.669Z,1009.81
2023-02-19T07:04:05.200Z,1009.78
2023-02-19T07:05:05.111Z,1009.83
2023-02-19T07:06:05.107Z,1009.91
2023-02-19T07:07:05.086Z,1009.90
2023-02-19T07:08:05.124Z,1009.91
2023-02-19T07:09:05.068Z,1009.91
2023-02-19T07:10:05.077Z,1009.95
2023-02-19T07:11:05.043Z,1009.94
2023-02-19T07:12:05.036Z,1009.95
2023-02-19T07:13:05.023Z,1009.95
2023-02-19T07:14:05.012Z,1009.91
2023-02-19T07:15:05.082Z,1009.96
2023-02-19T07:16:05.069Z,1009.90
2023-02-19T07:17:05.082Z,1009.94
2023-02-19T07:18:05.477Z,1009.95
2023-02-19T07:19:05.088Z,1010.00
2023-02-19T07:20:04.973Z,1009.96
2023-02-19T07:21:04.944Z,1010.00
2023-02-19T07:22:04.923Z,1009.98
2023-02-19T07:23:04.949Z,1010.05
2023-02-19T07:24:04.898Z,1010.12
2023-02-19T07:25:04.899Z,1010.12
2023-02-19T07:26:04.901Z,1010.15
2023-02-19T07:27:04.876Z,1010.14
2023-02-19T07:28:04.851Z,1010.13
2023-02-19T07:29:04.838Z,1010.20
2023-02-19T07:30:04.925Z,1010.18
2023-02-19T07:31:04.845Z,1010.20
2023-02-19T07:32:04.836Z,1010.23
2023-02-19T07:33:04.814Z,1010.28
2023-02-19T07:34:04.852Z,1010.25
2023-02-19T07:35:04.772Z,1010.17
2023-02-19T07:36:04.917Z,1010.19
2023-02-19T07:37:04.774Z,1010.24
2023-02-19T07:38:04.744Z,1010.23
2023-02-19T07:39:04.731Z,1010.26
2023-02-19T07:40:04.765Z,1010.26
2023-02-19T07:41:04.716Z,1010.29
2023-02-19T07:42:04.925Z,1010.35
2023-02-19T07:43:04.686Z,1010.27
2023-02-19T07:44:04.677Z,1010.33
2023-02-19T07:45:04.697Z,1010.33
2023-02-19T07:46:04.728Z,1010.31
2023-02-19T07:47:04.645Z,1010.37
2023-02-19T07:48:04.656Z,1010.40
2023-02-19T07:49:04.624Z,1010.48
2023-02-19T07:50:04.616Z,1010.50
2023-02-19T07:51:04.615Z,1010.47
2023-02-19T07:52:04.583Z,1010.44
2023-02-19T07:53:04.699Z,1010.48
2023-02-19T07:54:04.575Z,1010.45
2023-02-19T07:55:04.585Z,1010.51
2023-02-19T07:56:04.565Z,1010.55
2023-02-19T07:57:04.604Z,1010.60
2023-02-19T07:58:06.154Z,1010.60
2023-02-19T07:59:04.511Z,1010.57
2023-02-19T08:00:04.506Z,1010.59
2023-02-19T08:01:04.634Z,1010.62
2023-02-19T08:02:04.479Z,1010.60
2023-02-19T08:03:04.472Z,1010.63
2023-02-19T08:04:04.459Z,1010.61
2023-02-19T08:05:04.445Z,1010.72
2023-02-19T08:06:04.435Z,1010.77
2023-02-19T08:07:04.456Z,1010.77
2023-02-19T08:08:04.413Z,1010.77
2023-02-19T08:09:04.415Z,1010.83
2023-02-19T08:10:04.391Z,1010.86
2023-02-19T08:11:04.379Z,1010.96
2023-02-19T08:12:04.370Z,1010.90
2023-02-19T08:13:04.385Z,1010.92
2023-02-19T08:14:04.370Z,1010.94
2023-02-19T08:15:04.333Z,1010.96
2023-02-19T08:16:17.025Z,1010.95
2023-02-19T08:17:05.436Z,1010.96
2023-02-19T08:18:04.301Z,1010.94
2023-02-19T08:19:04.288Z,1010.95
2023-02-19T08:20:04.287Z,1010.88
2023-02-19T08:21:04.279Z,1010.87
2023-02-19T08:22:04.255Z,1010.95
2023-02-19T08:23:04.254Z,1011.04
2023-02-19T08:24:04.244Z,1011.01
2023-02-19T08:25:04.297Z,1011.04
2023-02-19T08:26:04.235Z,1011.13
2023-02-19T08:27:04.202Z,1011.13
2023-02-19T08:28:04.198Z,1011.18
2023-02-19T08:29:04.180Z,1011.14
2023-02-19T08:30:04.206Z,1011.16
2023-02-19T08:31:04.356Z,1011.24
2023-02-19T08:32:04.164Z,1011.26
2023-02-19T08:33:04.144Z,1011.19
2023-02-19T08:34:04.130Z,1011.20
2023-02-19T08:35:04.111Z,1011.25
2023-02-19T08:36:04.157Z,1011.32
2023-02-19T08:37:04.099Z,1011.34
2023-02-19T08:38:04.072Z,1011.43
2023-02-19T08:39:04.066Z,1011.29
2023-02-19T08:40:04.059Z,1011.39
2023-02-19T08:41:04.051Z,1011.41
2023-02-19T08:42:04.042Z,1011.49
2023-02-19T08:43:04.036Z,1011.46
2023-02-19T08:44:04.207Z,1011.38
2023-02-19T08:45:03.998Z,1011.25
2023-02-19T08:46:04.092Z,1011.26
2023-02-19T08:47:03.988Z,1011.56
2023-02-19T08:48:03.991Z,1011.56
2023-02-19T08:49:03.953Z,1011.54
2023-02-19T08:50:03.940Z,1011.57
2023-02-19T08:51:03.927Z,1011.62
2023-02-19T08:52:03.929Z,1011.61
2023-02-19T08:53:03.904Z,1011.58
2023-02-19T08:54:03.917Z,1011.37
2023-02-19T08:55:03.890Z,1011.63
2023-02-19T08:56:03.868Z,1011.57
2023-02-19T08:57:03.870Z,1011.50
2023-02-19T08:58:03.844Z,1011.58
2023-02-19T08:59:03.837Z,1011.43
2023-02-19T09:00:03.828Z,1011.40
2023-02-19T09:01:03.852Z,1011.75
2023-02-19T09:02:03.826Z,1011.72
2023-02-19T09:03:03.792Z,1011.50
2023-02-19T09:04:03.828Z,1011.55
2023-02-19T09:05:03.830Z,1011.75
2023-02-19T09:06:03.754Z,1011.55
2023-02-19T09:07:03.747Z,1011.59
2023-02-19T09:08:03.738Z,1011.64
2023-02-19T09:09:03.741Z,1011.71
2023-02-19T09:10:03.728Z,1011.95
2023-02-19T09:11:03.698Z,1011.72
2023-02-19T09:12:03.699Z,1011.77
2023-02-19T09:13:03.672Z,1011.74
2023-02-19T09:14:03.664Z,1011.88
2023-02-19T09:15:03.655Z,1011.85
2023-02-19T09:16:03.780Z,1011.87
2023-02-19T09:17:03.641Z,1011.87
2023-02-19T09:18:03.628Z,1011.87
2023-02-19T09:19:03.608Z,1011.88
2023-02-19T09:20:03.660Z,1011.82
2023-02-19T09:21:03.590Z,1011.96
2023-02-19T09:22:03.586Z,1012.00
2023-02-19T09:23:03.566Z,1012.25
2023-02-19T09:24:03.562Z,1011.95
2023-02-19T09:25:03.550Z,1011.93
2023-02-19T09:26:03.548Z,1012.06
2023-02-19T09:27:03.527Z,1012.09
2023-02-19T09:28:03.513Z,1012.07
2023-02-19T09:29:03.499Z,1012.27
2023-02-19T09:30:03.518Z,1012.00
2023-02-19T09:31:03.798Z,1011.99
2023-02-19T09:32:03.530Z,1012.13
2023-02-19T09:33:03.454Z,1012.01
2023-02-19T09:34:03.442Z,1012.04
2023-02-19T09:35:03.539Z,1012.04
2023-02-19T09:36:03.436Z,1012.11
2023-02-19T09:37:03.415Z,1012.23
2023-02-19T09:38:03.397Z,1012.13
2023-02-19T09:39:03.397Z,1012.08
2023-02-19T09:40:03.368Z,1012.18
2023-02-19T09:41:03.362Z,1011.99
2023-02-19T09:42:03.354Z,1012.07
2023-02-19T09:43:03.355Z,1012.15
2023-02-19T09:44:03.346Z,1012.10
2023-02-19T09:45:03.328Z,1012.15
2023-02-19T09:46:03.595Z,1012.15
2023-02-19T09:47:03.296Z,1012.09
2023-02-19T09:48:03.306Z,1012.41
2023-02-19T09:49:03.301Z,1012.18
2023-02-19T09:50:03.570Z,1012.21
2023-02-19T09:51:03.262Z,1012.18
2023-02-19T09:52:03.242Z,1012.24
2023-02-19T09:53:03.267Z,1012.35
2023-02-19T09:54:03.216Z,1012.29
2023-02-19T09:55:03.204Z,1012.32
2023-02-19T09:56:03.192Z,1012.34
2023-02-19T09:57:03.184Z,1012.37
2023-02-19T09:58:03.175Z,1012.31
2023-02-19T09:59:03.167Z,1012.36
2023-02-19T10:00:03.149Z,1012.42
2023-02-19T10:01:03.161Z,1012.41
2023-02-19T10:02:03.135Z,1012.38
2023-02-19T10:03:03.140Z,1012.58
2023-02-19T10:04:03.119Z,1012.40
2023-02-19T10:05:03.172Z,1012.43
2023-02-19T10:06:03.083Z,1012.40
2023-02-19T10:07:03.086Z,1012.51
2023-02-19T10:08:03.053Z,1012.63
2023-02-19T10:09:03.278Z,1012.70
2023-02-19T10:10:03.068Z,1012.44
2023-02-19T10:11:03.052Z,1012.38
2023-02-19T10:12:03.010Z,1012.43
2023-02-19T10:13:03.000Z,1012.46
2023-02-19T10:14:02.988Z,1012.60
2023-02-19T10:15:03.027Z,1012.52
2023-02-19T10:16:03.092Z,1012.56
2023-02-19T10:17:02.960Z,1012.50
2023-02-19T10:18:02.955Z,1012.65
2023-02-19T10:19:02.935Z,1012.66
2023-02-19T10:20:03.074Z,1012.72
2023-02-19T10:21:02.915Z,1012.65
2023-02-19T10:22:02.916Z,1013.02
2023-02-19T10:23:02.895Z,1012.80
2023-02-19T10:24:02.884Z,1012.63
2023-02-19T10:25:02.900Z,1012.67
2023-02-19T10:26:02.866Z,1012.71
2023-02-19T10:27:02.840Z,1012.77
2023-02-19T10:28:02.838Z,1012.81
2023-02-19T10:29:02.862Z,1012.85
2023-02-19T10:30:02.911Z,1013.22
2023-02-19T10:31:02.814Z,1012.86
2023-02-19T10:32:02.800Z,1012.90
2023-02-19T10:33:02.790Z,1012.93
2023-02-19T10:34:02.763Z,1012.91
2023-02-19T10:35:03.053Z,1012.97
2023-02-19T10:36:02.739Z,1013.04
2023-02-19T10:37:02.739Z,1013.03
2023-02-19T10:38:02.720Z,1013.05
2023-02-19T10:39:02.713Z,1013.27
2023-02-19T10:40:02.738Z,1013.06
2023-02-19T10:41:02.705Z,1012.95
2023-02-19T10:42:02.673Z,1012.95
2023-02-19T10:43:02.667Z,1013.24
2023-02-19T10:44:02.653Z,1012.91
2023-02-19T10:45:02.657Z,1012.97
2023-02-19T10:46:02.630Z,1013.10
2023-02-19T10:47:02.618Z,1012.92
2023-02-19T10:48:02.606Z,1013.02
2023-02-19T10:49:02.603Z,1012.99
2023-02-19T10:50:04.602Z,1013.00
2023-02-19T10:51:02.581Z,1013.24
2023-02-19T10:52:02.560Z,1013.12
2023-02-19T10:53:02.557Z,1013.17
2023-02-19T10:54:02.546Z,1013.16
2023-02-19T10:55:02.545Z,1013.17
2023-02-19T10:56:02.715Z,1013.07
2023-02-19T10:57:02.518Z,1013.16
2023-02-19T10:58:02.497Z,1013.16
2023-02-19T10:59:02.501Z,1013.30
2023-02-19T11:00:02.475Z,1013.17
2023-02-19T11:01:04.325Z,1013.26
2023-02-19T11:02:02.584Z,1013.31
2023-02-19T11:03:02.441Z,1013.37
2023-02-19T11:04:02.497Z,1013.73
2023-02-19T11:05:02.421Z,1013.47
2023-02-19T11:06:02.405Z,1013.31
2023-02-19T11:07:03.046Z,1013.20
2023-02-19T11:08:02.407Z,1013.51
2023-02-19T11:09:02.373Z,1013.39
2023-02-19T11:10:02.376Z,1013.54
2023-02-19T11:11:02.365Z,1013.75
2023-02-19T11:12:02.344Z,1013.40
2023-02-19T11:13:02.512Z,1013.32
2023-02-19T11:14:02.317Z,1013.31
2023-02-19T11:15:02.349Z,1013.44
2023-02-19T11:16:02.327Z,1013.46
2023-02-19T11:17:02.285Z,1013.75
2023-02-19T11:18:02.275Z,1013.64
2023-02-19T11:19:02.260Z,1013.54
2023-02-19T11:20:02.263Z,1013.54
2023-02-19T11:21:02.239Z,1013.71
2023-02-19T11:22:02.243Z,1013.60
2023-02-19T11:23:02.227Z,1013.73
2023-02-19T11:24:02.331Z,1013.60
2023-02-19T11:25:02.215Z,1013.66
2023-02-19T11:26:02.181Z,1013.65
2023-02-19T11:27:02.198Z,1013.68
2023-02-19T11:28:02.191Z,1013.77
2023-02-19T11:29:02.147Z,1013.86
2023-02-19T11:30:03.024Z,1013.75
2023-02-19T11:31:02.180Z,1013.87
2023-02-19T11:32:02.217Z,1013.79
2023-02-19T11:33:02.105Z,1013.78
2023-02-19T11:34:02.102Z,1013.80
2023-02-19T11:35:02.085Z,1013.83
2023-02-19T11:36:02.080Z,1013.81
2023-02-19T11:37:02.058Z,1013.94
2023-02-19T11:38:02.098Z,1013.78
2023-02-19T11:39:02.091Z,1013.75
2023-02-19T11:40:02.049Z,1013.70
2023-02-19T11:41:02.038Z,1013.77
2023-02-19T11:42:02.013Z,1014.03
2023-02-19T11:43:02.002Z,1013.92
2023-02-19T11:44:01.984Z,1014.07
2023-02-19T11:45:02.088Z,1014.00
2023-02-19T11:46:01.988Z,1013.77
2023-02-19T11:47:01.961Z,1013.78
2023-02-19T11:48:01.952Z,1013.77
2023-02-19T11:49:01.935Z,1013.75
2023-02-19T11:50:01.918Z,1013.91
2023-02-19T11:51:01.930Z,1013.79
2023-02-19T11:52:01.895Z,1013.67
2023-02-19T11:53:01.889Z,1013.61
2023-02-19T11:54:01.872Z,1013.98
2023-02-19T11:55:01.857Z,1013.98
2023-02-19T11:56:01.926Z,1013.84
2023-02-19T11:57:01.845Z,1013.92
2023-02-19T11:58:01.826Z,1013.97
2023-02-19T11:59:02.037Z,1013.90
2023-02-19T12:00:01.831Z,1013.91
2023-02-19T12:01:01.793Z,1013.92
2023-02-19T12:02:02.634Z,1013.84
2023-02-19T12:03:01.767Z,1013.83
2023-02-19T12:04:01.779Z,1013.86
2023-02-19T12:05:01.770Z,1013.86